sensor_id;sensor_type;location;lat;lon;timestamp;P1;durP1;ratioP1;P2;durP2;ratioP2
3627;SDS011;1830;49.000;12.074;2022-09-09T00:00:25;7.23;;;5.80;;
3627;SDS011;1830;49.000;12.074;2022-09-09T00:02:55;7.60;;;6.80;;
3627;SDS011;1830;49.000;12.074;2022-09-09T00:05:32;12.40;;;6.60;;
3627;SDS011;1830;49.000;12.074;2022-09-09T00:08:07;8.83;;;7.50;;
3627;SDS011;1830;49.000;12.074;2022-09-09T00:10:45;8.97;;;7.00;;
3627;SDS011;1830;49.000;12.074;2022-09-09T00:13:18;9.03;;;8.13;;
3627;SDS011;1830;49.000;12.074;2022-09-09T00:15:52;9.37;;;7.63;;
3627;SDS011;1830;49.000;12.074;2022-09-09T00:18:24;15.43;;;8.90;;
3627;SDS011;1830;49.000;12.074;2022-09-09T00:21:00;17.13;;;8.30;;
3627;SDS011;1830;49.000;12.074;2022-09-09T00:23:32;11.47;;;10.30;;
3627;SDS011;1830;49.000;12.074;2022-09-09T00:26:04;12.53;;;9.13;;
3627;SDS011;1830;49.000;12.074;2022-09-09T00:28:36;10.47;;;9.37;;
3627;SDS011;1830;49.000;12.074;2022-09-09T00:31:11;11.77;;;9.80;;
3627;SDS011;1830;49.000;12.074;2022-09-09T00:33:40;15.10;;;9.70;;
3627;SDS011;1830;49.000;12.074;2022-09-09T00:36:09;15.60;;;11.70;;
3627;SDS011;1830;49.000;12.074;2022-09-09T00:38:42;19.63;;;10.87;;
3627;SDS011;1830;49.000;12.074;2022-09-09T00:41:11;15.90;;;13.33;;
3627;SDS011;1830;49.000;12.074;2022-09-09T00:43:43;20.90;;;15.20;;
3627;SDS011;1830;49.000;12.074;2022-09-09T00:46:24;21.50;;;18.03;;
3627;SDS011;1830;49.000;12.074;2022-09-09T00:49:08;24.60;;;20.10;;
3627;SDS011;1830;49.000;12.074;2022-09-09T00:51:46;25.13;;;17.50;;
3627;SDS011;1830;49.000;12.074;2022-09-09T00:54:27;30.37;;;18.77;;
3627;SDS011;1830;49.000;12.074;2022-09-09T00:57:06;26.53;;;20.00;;
3627;SDS011;1830;49.000;12.074;2022-09-09T00:59:43;22.60;;;19.13;;
3627;SDS011;1830;49.000;12.074;2022-09-09T01:02:18;29.13;;;18.80;;
3627;SDS011;1830;49.000;12.074;2022-09-09T01:04:54;37.63;;;19.50;;
3627;SDS011;1830;49.000;12.074;2022-09-09T01:07:24;26.93;;;18.30;;
3627;SDS011;1830;49.000;12.074;2022-09-09T01:09:52;27.10;;;18.50;;
3627;SDS011;1830;49.000;12.074;2022-09-09T01:12:26;37.00;;;19.83;;
3627;SDS011;1830;49.000;12.074;2022-09-09T01:15:01;27.67;;;17.87;;
3627;SDS011;1830;49.000;12.074;2022-09-09T01:17:39;39.83;;;18.40;;
3627;SDS011;1830;49.000;12.074;2022-09-09T01:20:17;25.53;;;18.00;;
3627;SDS011;1830;49.000;12.074;2022-09-09T01:22:51;71.67;;;19.10;;
3627;SDS011;1830;49.000;12.074;2022-09-09T01:25:29;33.67;;;18.67;;
3627;SDS011;1830;49.000;12.074;2022-09-09T01:28:13;31.50;;;18.43;;
3627;SDS011;1830;49.000;12.074;2022-09-09T01:30:43;29.20;;;18.70;;
3627;SDS011;1830;49.000;12.074;2022-09-09T01:33:12;31.13;;;16.77;;
3627;SDS011;1830;49.000;12.074;2022-09-09T01:35:42;23.90;;;18.03;;
3627;SDS011;1830;49.000;12.074;2022-09-09T01:38:15;75.13;;;18.37;;
3627;SDS011;1830;49.000;12.074;2022-09-09T01:40:43;82.67;;;17.53;;
3627;SDS011;1830;49.000;12.074;2022-09-09T01:43:11;110.63;;;17.30;;
3627;SDS011;1830;49.000;12.074;2022-09-09T01:45:39;67.60;;;17.70;;
3627;SDS011;1830;49.000;12.074;2022-09-09T01:48:08;31.70;;;18.13;;
3627;SDS011;1830;49.000;12.074;2022-09-09T01:50:35;97.40;;;18.40;;
3627;SDS011;1830;49.000;12.074;2022-09-09T01:53:02;92.87;;;18.60;;
3627;SDS011;1830;49.000;12.074;2022-09-09T01:55:30;42.13;;;16.50;;
3627;SDS011;1830;49.000;12.074;2022-09-09T01:58:24;24.40;;;16.97;;
3627;SDS011;1830;49.000;12.074;2022-09-09T02:01:01;44.47;;;16.80;;
3627;SDS011;1830;49.000;12.074;2022-09-09T02:03:42;20.97;;;17.13;;
3627;SDS011;1830;49.000;12.074;2022-09-09T02:06:14;51.30;;;17.73;;
3627;SDS011;1830;49.000;12.074;2022-09-09T02:08:52;23.63;;;16.57;;
3627;SDS011;1830;49.000;12.074;2022-09-09T02:11:22;29.30;;;16.50;;
3627;SDS011;1830;49.000;12.074;2022-09-09T02:13:52;32.90;;;16.63;;
3627;SDS011;1830;49.000;12.074;2022-09-09T02:16:23;50.63;;;16.83;;
3627;SDS011;1830;49.000;12.074;2022-09-09T02:18:54;31.63;;;17.20;;
3627;SDS011;1830;49.000;12.074;2022-09-09T02:21:24;23.10;;;16.60;;
3627;SDS011;1830;49.000;12.074;2022-09-09T02:23:53;43.20;;;17.13;;
3627;SDS011;1830;49.000;12.074;2022-09-09T02:26:23;62.20;;;17.20;;
3627;SDS011;1830;49.000;12.074;2022-09-09T02:28:53;23.03;;;14.70;;
3627;SDS011;1830;49.000;12.074;2022-09-09T02:31:24;55.83;;;17.07;;
3627;SDS011;1830;49.000;12.074;2022-09-09T02:33:52;37.23;;;17.10;;
3627;SDS011;1830;49.000;12.074;2022-09-09T02:36:22;44.27;;;17.50;;
3627;SDS011;1830;49.000;12.074;2022-09-09T02:38:51;48.43;;;17.67;;
3627;SDS011;1830;49.000;12.074;2022-09-09T02:41:19;53.23;;;17.10;;
3627;SDS011;1830;49.000;12.074;2022-09-09T02:43:50;37.97;;;17.30;;
3627;SDS011;1830;49.000;12.074;2022-09-09T02:46:24;192.10;;;18.83;;
3627;SDS011;1830;49.000;12.074;2022-09-09T02:49:01;29.30;;;16.17;;
3627;SDS011;1830;49.000;12.074;2022-09-09T02:51:35;33.00;;;15.97;;
3627;SDS011;1830;49.000;12.074;2022-09-09T02:54:09;33.90;;;16.50;;
3627;SDS011;1830;49.000;12.074;2022-09-09T02:56:40;22.30;;;16.27;;
3627;SDS011;1830;49.000;12.074;2022-09-09T02:59:12;59.53;;;17.50;;
3627;SDS011;1830;49.000;12.074;2022-09-09T03:01:40;35.57;;;16.23;;
3627;SDS011;1830;49.000;12.074;2022-09-09T03:04:07;37.40;;;17.90;;
3627;SDS011;1830;49.000;12.074;2022-09-09T03:06:34;29.60;;;16.77;;
3627;SDS011;1830;49.000;12.074;2022-09-09T03:09:01;36.67;;;16.13;;
3627;SDS011;1830;49.000;12.074;2022-09-09T03:11:28;39.43;;;16.40;;
3627;SDS011;1830;49.000;12.074;2022-09-09T03:13:55;53.37;;;17.23;;
3627;SDS011;1830;49.000;12.074;2022-09-09T03:16:22;23.00;;;18.23;;
3627;SDS011;1830;49.000;12.074;2022-09-09T03:18:50;28.70;;;17.60;;
3627;SDS011;1830;49.000;12.074;2022-09-09T03:21:17;37.33;;;17.10;;
3627;SDS011;1830;49.000;12.074;2022-09-09T03:23:44;35.87;;;16.20;;
3627;SDS011;1830;49.000;12.074;2022-09-09T03:26:11;58.70;;;16.90;;
3627;SDS011;1830;49.000;12.074;2022-09-09T03:28:40;54.17;;;16.17;;
3627;SDS011;1830;49.000;12.074;2022-09-09T03:31:07;35.30;;;16.40;;
3627;SDS011;1830;49.000;12.074;2022-09-09T03:33:35;32.20;;;16.53;;
3627;SDS011;1830;49.000;12.074;2022-09-09T03:36:03;29.07;;;16.73;;
3627;SDS011;1830;49.000;12.074;2022-09-09T03:38:30;21.70;;;16.80;;
3627;SDS011;1830;49.000;12.074;2022-09-09T03:40:59;29.13;;;16.90;;
3627;SDS011;1830;49.000;12.074;2022-09-09T03:43:27;28.23;;;17.10;;
3627;SDS011;1830;49.000;12.074;2022-09-09T03:45:54;56.93;;;18.00;;
3627;SDS011;1830;49.000;12.074;2022-09-09T03:48:22;18.33;;;15.20;;
3627;SDS011;1830;49.000;12.074;2022-09-09T03:50:50;34.33;;;17.30;;
3627;SDS011;1830;49.000;12.074;2022-09-09T03:53:21;47.50;;;17.43;;
3627;SDS011;1830;49.000;12.074;2022-09-09T03:55:50;21.03;;;15.00;;
3627;SDS011;1830;49.000;12.074;2022-09-09T03:58:20;35.47;;;16.70;;
3627;SDS011;1830;49.000;12.074;2022-09-09T04:00:52;38.10;;;16.47;;
3627;SDS011;1830;49.000;12.074;2022-09-09T04:03:20;29.93;;;17.63;;
3627;SDS011;1830;49.000;12.074;2022-09-09T04:05:49;43.17;;;17.93;;
3627;SDS011;1830;49.000;12.074;2022-09-09T04:08:16;40.83;;;16.90;;
3627;SDS011;1830;49.000;12.074;2022-09-09T04:10:45;29.90;;;16.77;;
3627;SDS011;1830;49.000;12.074;2022-09-09T04:13:12;27.20;;;18.20;;
3627;SDS011;1830;49.000;12.074;2022-09-09T04:15:42;53.70;;;16.73;;
3627;SDS011;1830;49.000;12.074;2022-09-09T04:18:10;33.30;;;17.50;;
3627;SDS011;1830;49.000;12.074;2022-09-09T04:20:37;20.17;;;16.30;;
3627;SDS011;1830;49.000;12.074;2022-09-09T04:23:04;24.90;;;16.90;;
3627;SDS011;1830;49.000;12.074;2022-09-09T04:25:31;21.20;;;16.93;;
3627;SDS011;1830;49.000;12.074;2022-09-09T04:28:00;19.27;;;16.93;;
3627;SDS011;1830;49.000;12.074;2022-09-09T04:30:27;35.50;;;18.07;;
3627;SDS011;1830;49.000;12.074;2022-09-09T04:32:54;40.03;;;17.20;;
3627;SDS011;1830;49.000;12.074;2022-09-09T04:35:22;34.57;;;16.47;;
3627;SDS011;1830;49.000;12.074;2022-09-09T04:37:49;19.17;;;16.57;;
3627;SDS011;1830;49.000;12.074;2022-09-09T04:40:16;19.50;;;16.27;;
3627;SDS011;1830;49.000;12.074;2022-09-09T04:42:42;29.70;;;16.70;;
3627;SDS011;1830;49.000;12.074;2022-09-09T04:45:11;25.90;;;17.67;;
3627;SDS011;1830;49.000;12.074;2022-09-09T04:47:38;26.13;;;17.60;;
3627;SDS011;1830;49.000;12.074;2022-09-09T04:50:06;25.60;;;16.97;;
3627;SDS011;1830;49.000;12.074;2022-09-09T04:52:33;20.77;;;16.90;;
3627;SDS011;1830;49.000;12.074;2022-09-09T04:55:01;46.60;;;19.10;;
3627;SDS011;1830;49.000;12.074;2022-09-09T04:57:27;38.07;;;17.80;;
3627;SDS011;1830;49.000;12.074;2022-09-09T04:59:57;22.60;;;18.07;;
3627;SDS011;1830;49.000;12.074;2022-09-09T05:02:26;36.93;;;18.43;;
3627;SDS011;1830;49.000;12.074;2022-09-09T05:04:53;28.60;;;18.80;;
3627;SDS011;1830;49.000;12.074;2022-09-09T05:07:20;21.80;;;17.77;;
3627;SDS011;1830;49.000;12.074;2022-09-09T05:09:47;25.17;;;18.67;;
3627;SDS011;1830;49.000;12.074;2022-09-09T05:12:14;27.43;;;19.47;;
3627;SDS011;1830;49.000;12.074;2022-09-09T05:14:42;25.97;;;19.50;;
3627;SDS011;1830;49.000;12.074;2022-09-09T05:17:09;25.13;;;19.30;;
3627;SDS011;1830;49.000;12.074;2022-09-09T05:19:37;22.53;;;19.20;;
3627;SDS011;1830;49.000;12.074;2022-09-09T05:22:04;27.27;;;20.23;;
3627;SDS011;1830;49.000;12.074;2022-09-09T05:24:32;25.23;;;20.73;;
3627;SDS011;1830;49.000;12.074;2022-09-09T05:26:59;23.80;;;18.03;;
3627;SDS011;1830;49.000;12.074;2022-09-09T05:29:27;25.50;;;18.30;;
3627;SDS011;1830;49.000;12.074;2022-09-09T05:31:54;20.40;;;18.00;;
3627;SDS011;1830;49.000;12.074;2022-09-09T05:34:21;24.80;;;17.77;;
3627;SDS011;1830;49.000;12.074;2022-09-09T05:36:49;24.27;;;17.40;;
3627;SDS011;1830;49.000;12.074;2022-09-09T05:39:16;24.23;;;17.40;;
3627;SDS011;1830;49.000;12.074;2022-09-09T05:41:43;25.97;;;17.13;;
3627;SDS011;1830;49.000;12.074;2022-09-09T05:44:10;21.43;;;16.87;;
3627;SDS011;1830;49.000;12.074;2022-09-09T05:46:36;18.03;;;15.47;;
3627;SDS011;1830;49.000;12.074;2022-09-09T05:49:03;18.40;;;14.60;;
3627;SDS011;1830;49.000;12.074;2022-09-09T05:51:31;17.90;;;14.30;;
3627;SDS011;1830;49.000;12.074;2022-09-09T05:53:59;22.20;;;14.73;;
3627;SDS011;1830;49.000;12.074;2022-09-09T05:56:27;15.47;;;13.77;;
3627;SDS011;1830;49.000;12.074;2022-09-09T05:58:55;19.40;;;13.90;;
3627;SDS011;1830;49.000;12.074;2022-09-09T06:01:22;16.03;;;14.00;;
3627;SDS011;1830;49.000;12.074;2022-09-09T06:03:51;15.20;;;12.80;;
3627;SDS011;1830;49.000;12.074;2022-09-09T06:06:19;16.83;;;13.40;;
3627;SDS011;1830;49.000;12.074;2022-09-09T06:08:47;18.50;;;12.80;;
3627;SDS011;1830;49.000;12.074;2022-09-09T06:11:18;16.70;;;12.60;;
3627;SDS011;1830;49.000;12.074;2022-09-09T06:13:46;20.33;;;13.20;;
3627;SDS011;1830;49.000;12.074;2022-09-09T06:16:16;17.53;;;13.60;;
3627;SDS011;1830;49.000;12.074;2022-09-09T06:18:44;21.03;;;14.77;;
3627;SDS011;1830;49.000;12.074;2022-09-09T06:21:14;21.10;;;13.23;;
3627;SDS011;1830;49.000;12.074;2022-09-09T06:23:42;15.23;;;13.63;;
3627;SDS011;1830;49.000;12.074;2022-09-09T06:26:10;17.73;;;14.20;;
3627;SDS011;1830;49.000;12.074;2022-09-09T06:28:40;20.13;;;14.03;;
3627;SDS011;1830;49.000;12.074;2022-09-09T06:31:08;21.33;;;14.70;;
3627;SDS011;1830;49.000;12.074;2022-09-09T06:33:37;26.90;;;15.10;;
3627;SDS011;1830;49.000;12.074;2022-09-09T06:36:06;20.00;;;14.07;;
3627;SDS011;1830;49.000;12.074;2022-09-09T06:38:36;14.30;;;12.80;;
3627;SDS011;1830;49.000;12.074;2022-09-09T06:41:03;18.47;;;14.00;;
3627;SDS011;1830;49.000;12.074;2022-09-09T06:43:30;16.13;;;13.67;;
3627;SDS011;1830;49.000;12.074;2022-09-09T06:45:59;22.07;;;15.13;;
3627;SDS011;1830;49.000;12.074;2022-09-09T06:48:27;16.97;;;13.47;;
3627;SDS011;1830;49.000;12.074;2022-09-09T06:51:01;19.53;;;15.70;;
3627;SDS011;1830;49.000;12.074;2022-09-09T06:53:28;17.33;;;14.87;;
3627;SDS011;1830;49.000;12.074;2022-09-09T06:55:58;17.60;;;15.77;;
3627;SDS011;1830;49.000;12.074;2022-09-09T06:58:26;18.07;;;14.90;;
3627;SDS011;1830;49.000;12.074;2022-09-09T07:00:53;19.00;;;14.30;;
3627;SDS011;1830;49.000;12.074;2022-09-09T07:03:28;25.47;;;15.47;;
3627;SDS011;1830;49.000;12.074;2022-09-09T07:05:55;19.67;;;15.47;;
3627;SDS011;1830;49.000;12.074;2022-09-09T07:08:22;25.23;;;16.87;;
3627;SDS011;1830;49.000;12.074;2022-09-09T07:10:49;23.00;;;16.93;;
3627;SDS011;1830;49.000;12.074;2022-09-09T07:13:18;21.77;;;17.03;;
3627;SDS011;1830;49.000;12.074;2022-09-09T07:15:46;23.40;;;17.10;;
3627;SDS011;1830;49.000;12.074;2022-09-09T07:18:14;24.30;;;19.10;;
3627;SDS011;1830;49.000;12.074;2022-09-09T07:20:41;24.93;;;16.63;;
3627;SDS011;1830;49.000;12.074;2022-09-09T07:23:07;24.80;;;15.87;;
3627;SDS011;1830;49.000;12.074;2022-09-09T07:25:34;26.13;;;15.93;;
3627;SDS011;1830;49.000;12.074;2022-09-09T07:28:01;17.77;;;15.57;;
3627;SDS011;1830;49.000;12.074;2022-09-09T07:30:28;21.30;;;14.97;;
3627;SDS011;1830;49.000;12.074;2022-09-09T07:32:55;27.80;;;16.50;;
3627;SDS011;1830;49.000;12.074;2022-09-09T07:35:25;22.73;;;15.67;;
3627;SDS011;1830;49.000;12.074;2022-09-09T07:37:52;22.47;;;17.40;;
3627;SDS011;1830;49.000;12.074;2022-09-09T07:40:19;19.90;;;15.57;;
3627;SDS011;1830;49.000;12.074;2022-09-09T07:42:47;20.40;;;14.57;;
3627;SDS011;1830;49.000;12.074;2022-09-09T07:45:14;17.50;;;14.80;;
3627;SDS011;1830;49.000;12.074;2022-09-09T07:47:40;20.37;;;15.50;;
3627;SDS011;1830;49.000;12.074;2022-09-09T07:50:08;19.60;;;15.00;;
3627;SDS011;1830;49.000;12.074;2022-09-09T07:52:36;16.70;;;14.07;;
3627;SDS011;1830;49.000;12.074;2022-09-09T07:55:03;16.27;;;13.23;;
3627;SDS011;1830;49.000;12.074;2022-09-09T07:57:31;16.00;;;12.77;;
3627;SDS011;1830;49.000;12.074;2022-09-09T07:59:58;15.40;;;12.77;;
3627;SDS011;1830;49.000;12.074;2022-09-09T08:02:24;15.87;;;12.40;;
3627;SDS011;1830;49.000;12.074;2022-09-09T08:04:54;19.90;;;13.70;;
3627;SDS011;1830;49.000;12.074;2022-09-09T08:07:21;19.43;;;13.37;;
3627;SDS011;1830;49.000;12.074;2022-09-09T08:09:50;17.23;;;12.53;;
3627;SDS011;1830;49.000;12.074;2022-09-09T08:12:19;13.83;;;11.40;;
3627;SDS011;1830;49.000;12.074;2022-09-09T08:14:46;16.50;;;12.07;;
3627;SDS011;1830;49.000;12.074;2022-09-09T08:17:13;27.70;;;12.37;;
3627;SDS011;1830;49.000;12.074;2022-09-09T08:19:40;23.70;;;12.70;;
3627;SDS011;1830;49.000;12.074;2022-09-09T08:22:07;15.90;;;11.93;;
3627;SDS011;1830;49.000;12.074;2022-09-09T08:24:34;16.50;;;11.67;;
3627;SDS011;1830;49.000;12.074;2022-09-09T08:27:02;19.03;;;12.07;;
3627;SDS011;1830;49.000;12.074;2022-09-09T08:29:29;17.10;;;9.73;;
3627;SDS011;1830;49.000;12.074;2022-09-09T08:31:57;15.60;;;10.23;;
3627;SDS011;1830;49.000;12.074;2022-09-09T08:34:25;12.00;;;9.50;;
3627;SDS011;1830;49.000;12.074;2022-09-09T08:36:53;13.73;;;9.53;;
3627;SDS011;1830;49.000;12.074;2022-09-09T08:39:21;16.87;;;9.67;;
3627;SDS011;1830;49.000;12.074;2022-09-09T08:41:57;9.93;;;8.47;;
3627;SDS011;1830;49.000;12.074;2022-09-09T08:44:48;19.03;;;10.00;;
3627;SDS011;1830;49.000;12.074;2022-09-09T08:47:34;9.63;;;8.23;;
3627;SDS011;1830;49.000;12.074;2022-09-09T08:50:16;10.00;;;7.60;;
3627;SDS011;1830;49.000;12.074;2022-09-09T08:52:51;8.60;;;7.50;;
3627;SDS011;1830;49.000;12.074;2022-09-09T08:55:24;13.50;;;7.53;;
3627;SDS011;1830;49.000;12.074;2022-09-09T08:57:56;9.40;;;7.73;;
3627;SDS011;1830;49.000;12.074;2022-09-09T09:00:29;14.33;;;8.93;;
3627;SDS011;1830;49.000;12.074;2022-09-09T09:03:05;9.77;;;7.13;;
3627;SDS011;1830;49.000;12.074;2022-09-09T09:05:41;9.77;;;7.47;;
3627;SDS011;1830;49.000;12.074;2022-09-09T09:08:15;8.37;;;6.03;;
3627;SDS011;1830;49.000;12.074;2022-09-09T09:10:52;12.00;;;6.70;;
3627;SDS011;1830;49.000;12.074;2022-09-09T09:13:26;10.23;;;7.20;;
3627;SDS011;1830;49.000;12.074;2022-09-09T09:16:00;10.10;;;6.97;;
3627;SDS011;1830;49.000;12.074;2022-09-09T09:18:32;14.50;;;5.93;;
3627;SDS011;1830;49.000;12.074;2022-09-09T09:21:01;17.63;;;6.80;;
3627;SDS011;1830;49.000;12.074;2022-09-09T09:23:33;20.47;;;6.37;;
3627;SDS011;1830;49.000;12.074;2022-09-09T09:26:06;9.57;;;5.97;;
3627;SDS011;1830;49.000;12.074;2022-09-09T09:28:37;8.00;;;5.50;;
3627;SDS011;1830;49.000;12.074;2022-09-09T09:31:06;9.40;;;6.03;;
3627;SDS011;1830;49.000;12.074;2022-09-09T09:33:37;10.03;;;5.87;;
3627;SDS011;1830;49.000;12.074;2022-09-09T09:36:11;8.80;;;6.07;;
3627;SDS011;1830;49.000;12.074;2022-09-09T09:38:40;9.50;;;6.87;;
3627;SDS011;1830;49.000;12.074;2022-09-09T09:41:28;11.30;;;6.10;;
3627;SDS011;1830;49.000;12.074;2022-09-09T09:43:57;8.20;;;5.87;;
3627;SDS011;1830;49.000;12.074;2022-09-09T09:46:25;13.70;;;6.13;;
3627;SDS011;1830;49.000;12.074;2022-09-09T09:48:56;8.13;;;5.73;;
3627;SDS011;1830;49.000;12.074;2022-09-09T09:51:23;8.97;;;5.07;;
3627;SDS011;1830;49.000;12.074;2022-09-09T09:53:51;11.83;;;5.80;;
3627;SDS011;1830;49.000;12.074;2022-09-09T09:56:25;9.67;;;5.60;;
3627;SDS011;1830;49.000;12.074;2022-09-09T09:58:53;8.27;;;5.40;;
3627;SDS011;1830;49.000;12.074;2022-09-09T10:01:23;9.03;;;5.00;;
3627;SDS011;1830;49.000;12.074;2022-09-09T10:03:52;7.30;;;4.97;;
3627;SDS011;1830;49.000;12.074;2022-09-09T10:06:29;5.93;;;4.37;;
3627;SDS011;1830;49.000;12.074;2022-09-09T10:08:57;6.50;;;4.30;;
3627;SDS011;1830;49.000;12.074;2022-09-09T10:14:12;6.43;;;4.70;;
3627;SDS011;1830;49.000;12.074;2022-09-09T10:16:49;8.90;;;4.97;;
3627;SDS011;1830;49.000;12.074;2022-09-09T10:19:29;9.53;;;4.63;;
3627;SDS011;1830;49.000;12.074;2022-09-09T10:22:02;8.70;;;3.57;;
3627;SDS011;1830;49.000;12.074;2022-09-09T10:24:54;9.73;;;3.73;;
3627;SDS011;1830;49.000;12.074;2022-09-09T10:27:44;6.90;;;3.00;;
3627;SDS011;1830;49.000;12.074;2022-09-09T10:30:22;5.67;;;3.33;;
3627;SDS011;1830;49.000;12.074;2022-09-09T10:32:57;6.73;;;3.17;;
3627;SDS011;1830;49.000;12.074;2022-09-09T10:35:30;8.07;;;3.50;;
3627;SDS011;1830;49.000;12.074;2022-09-09T10:38:12;9.10;;;3.50;;
3627;SDS011;1830;49.000;12.074;2022-09-09T10:40:42;6.23;;;3.00;;
3627;SDS011;1830;49.000;12.074;2022-09-09T10:43:20;5.60;;;3.60;;
3627;SDS011;1830;49.000;12.074;2022-09-09T10:46:02;5.70;;;3.23;;
3627;SDS011;1830;49.000;12.074;2022-09-09T10:48:40;6.33;;;3.60;;
3627;SDS011;1830;49.000;12.074;2022-09-09T10:51:19;7.80;;;3.40;;
3627;SDS011;1830;49.000;12.074;2022-09-09T10:53:53;5.80;;;3.27;;
3627;SDS011;1830;49.000;12.074;2022-09-09T10:56:31;8.20;;;3.57;;
3627;SDS011;1830;49.000;12.074;2022-09-09T10:58:59;6.93;;;3.50;;
3627;SDS011;1830;49.000;12.074;2022-09-09T11:01:30;5.30;;;3.20;;
3627;SDS011;1830;49.000;12.074;2022-09-09T11:04:02;7.53;;;3.33;;
3627;SDS011;1830;49.000;12.074;2022-09-09T11:06:37;6.50;;;2.83;;
3627;SDS011;1830;49.000;12.074;2022-09-09T11:09:08;3.00;;;2.50;;
3627;SDS011;1830;49.000;12.074;2022-09-09T11:11:43;5.10;;;2.90;;
3627;SDS011;1830;49.000;12.074;2022-09-09T11:14:18;4.90;;;2.80;;
3627;SDS011;1830;49.000;12.074;2022-09-09T11:16:49;5.70;;;3.00;;
3627;SDS011;1830;49.000;12.074;2022-09-09T11:19:22;7.63;;;3.27;;
3627;SDS011;1830;49.000;12.074;2022-09-09T11:21:54;6.30;;;3.40;;
3627;SDS011;1830;49.000;12.074;2022-09-09T11:24:23;8.20;;;3.73;;
3627;SDS011;1830;49.000;12.074;2022-09-09T11:26:57;6.50;;;3.30;;
3627;SDS011;1830;49.000;12.074;2022-09-09T11:32:37;6.93;;;3.10;;
3627;SDS011;1830;49.000;12.074;2022-09-09T11:35:37;5.33;;;3.20;;
3627;SDS011;1830;49.000;12.074;2022-09-09T11:38:15;4.00;;;2.83;;
3627;SDS011;1830;49.000;12.074;2022-09-09T11:40:45;6.07;;;2.40;;
3627;SDS011;1830;49.000;12.074;2022-09-09T11:43:15;4.80;;;2.63;;
3627;SDS011;1830;49.000;12.074;2022-09-09T11:45:50;9.80;;;2.97;;
3627;SDS011;1830;49.000;12.074;2022-09-09T11:48:22;5.67;;;2.90;;
3627;SDS011;1830;49.000;12.074;2022-09-09T11:51:00;5.63;;;2.40;;
3627;SDS011;1830;49.000;12.074;2022-09-09T11:53:30;6.90;;;2.37;;
3627;SDS011;1830;49.000;12.074;2022-09-09T11:58:55;7.97;;;2.10;;
3627;SDS011;1830;49.000;12.074;2022-09-09T12:01:29;4.53;;;2.40;;
3627;SDS011;1830;49.000;12.074;2022-09-09T12:04:11;7.17;;;3.03;;
3627;SDS011;1830;49.000;12.074;2022-09-09T12:06:56;6.53;;;2.20;;
3627;SDS011;1830;49.000;12.074;2022-09-09T12:09:26;4.73;;;2.60;;
3627;SDS011;1830;49.000;12.074;2022-09-09T12:12:22;5.57;;;2.30;;
3627;SDS011;1830;49.000;12.074;2022-09-09T12:15:00;4.80;;;2.40;;
3627;SDS011;1830;49.000;12.074;2022-09-09T12:17:45;5.90;;;2.43;;
3627;SDS011;1830;49.000;12.074;2022-09-09T12:20:15;6.23;;;3.30;;
3627;SDS011;1830;49.000;12.074;2022-09-09T12:22:47;4.63;;;2.40;;
3627;SDS011;1830;49.000;12.074;2022-09-09T12:25:26;5.50;;;2.30;;
3627;SDS011;1830;49.000;12.074;2022-09-09T12:28:03;8.33;;;2.50;;
3627;SDS011;1830;49.000;12.074;2022-09-09T12:30:37;7.67;;;2.60;;
3627;SDS011;1830;49.000;12.074;2022-09-09T12:33:17;5.70;;;2.60;;
3627;SDS011;1830;49.000;12.074;2022-09-09T12:35:45;4.47;;;2.03;;
3627;SDS011;1830;49.000;12.074;2022-09-09T12:38:20;7.90;;;2.97;;
3627;SDS011;1830;49.000;12.074;2022-09-09T12:40:54;3.00;;;2.13;;
3627;SDS011;1830;49.000;12.074;2022-09-09T12:43:23;7.70;;;3.40;;
3627;SDS011;1830;49.000;12.074;2022-09-09T12:45:52;8.47;;;3.10;;
3627;SDS011;1830;49.000;12.074;2022-09-09T12:48:24;8.93;;;2.87;;
3627;SDS011;1830;49.000;12.074;2022-09-09T12:50:58;6.70;;;2.63;;
3627;SDS011;1830;49.000;12.074;2022-09-09T12:53:29;7.73;;;2.70;;
3627;SDS011;1830;49.000;12.074;2022-09-09T12:55:59;5.83;;;2.40;;
3627;SDS011;1830;49.000;12.074;2022-09-09T12:58:28;7.67;;;3.17;;
3627;SDS011;1830;49.000;12.074;2022-09-09T13:00:58;10.10;;;2.37;;
3627;SDS011;1830;49.000;12.074;2022-09-09T13:03:26;6.77;;;2.50;;
3627;SDS011;1830;49.000;12.074;2022-09-09T13:05:53;3.40;;;2.00;;
3627;SDS011;1830;49.000;12.074;2022-09-09T13:08:26;5.77;;;2.20;;
3627;SDS011;1830;49.000;12.074;2022-09-09T13:10:54;5.97;;;2.23;;
3627;SDS011;1830;49.000;12.074;2022-09-09T13:13:26;6.27;;;2.10;;
3627;SDS011;1830;49.000;12.074;2022-09-09T13:15:56;5.00;;;2.27;;
3627;SDS011;1830;49.000;12.074;2022-09-09T13:18:26;8.00;;;2.07;;
3627;SDS011;1830;49.000;12.074;2022-09-09T13:20:55;7.90;;;2.10;;
3627;SDS011;1830;49.000;12.074;2022-09-09T13:23:24;4.30;;;1.90;;
3627;SDS011;1830;49.000;12.074;2022-09-09T13:25:56;5.67;;;1.97;;
3627;SDS011;1830;49.000;12.074;2022-09-09T13:28:25;6.97;;;1.50;;
3627;SDS011;1830;49.000;12.074;2022-09-09T13:30:56;6.53;;;2.20;;
3627;SDS011;1830;49.000;12.074;2022-09-09T13:33:29;6.50;;;2.60;;
3627;SDS011;1830;49.000;12.074;2022-09-09T13:35:58;5.67;;;2.60;;
3627;SDS011;1830;49.000;12.074;2022-09-09T13:38:30;11.83;;;2.00;;
3627;SDS011;1830;49.000;12.074;2022-09-09T13:41:00;15.27;;;2.20;;
3627;SDS011;1830;49.000;12.074;2022-09-09T13:43:29;6.33;;;2.10;;
3627;SDS011;1830;49.000;12.074;2022-09-09T13:46:00;10.60;;;2.40;;
3627;SDS011;1830;49.000;12.074;2022-09-09T13:48:28;4.17;;;2.13;;
3627;SDS011;1830;49.000;12.074;2022-09-09T13:50:57;3.30;;;2.00;;
3627;SDS011;1830;49.000;12.074;2022-09-09T13:53:26;7.10;;;2.23;;
3627;SDS011;1830;49.000;12.074;2022-09-09T13:55:55;6.53;;;2.10;;
3627;SDS011;1830;49.000;12.074;2022-09-09T13:58:22;4.20;;;1.80;;
3627;SDS011;1830;49.000;12.074;2022-09-09T14:00:50;8.43;;;2.03;;
3627;SDS011;1830;49.000;12.074;2022-09-09T14:03:17;6.33;;;2.33;;
3627;SDS011;1830;49.000;12.074;2022-09-09T14:05:44;4.10;;;1.90;;
3627;SDS011;1830;49.000;12.074;2022-09-09T14:08:15;9.20;;;2.37;;
3627;SDS011;1830;49.000;12.074;2022-09-09T14:10:47;5.80;;;2.00;;
3627;SDS011;1830;49.000;12.074;2022-09-09T14:13:15;6.27;;;2.37;;
3627;SDS011;1830;49.000;12.074;2022-09-09T14:15:42;4.80;;;2.30;;
3627;SDS011;1830;49.000;12.074;2022-09-09T14:18:09;5.17;;;2.07;;
3627;SDS011;1830;49.000;12.074;2022-09-09T14:20:38;4.00;;;1.77;;
3627;SDS011;1830;49.000;12.074;2022-09-09T14:23:05;5.27;;;1.63;;
3627;SDS011;1830;49.000;12.074;2022-09-09T14:25:32;4.10;;;2.10;;
3627;SDS011;1830;49.000;12.074;2022-09-09T14:27:59;5.40;;;1.50;;
3627;SDS011;1830;49.000;12.074;2022-09-09T14:30:28;8.57;;;2.57;;
3627;SDS011;1830;49.000;12.074;2022-09-09T14:32:55;5.13;;;1.50;;
3627;SDS011;1830;49.000;12.074;2022-09-09T14:35:21;5.00;;;2.00;;
3627;SDS011;1830;49.000;12.074;2022-09-09T14:37:48;5.97;;;1.73;;
3627;SDS011;1830;49.000;12.074;2022-09-09T14:40:15;5.93;;;2.23;;
3627;SDS011;1830;49.000;12.074;2022-09-09T14:42:42;3.20;;;1.90;;
3627;SDS011;1830;49.000;12.074;2022-09-09T14:45:10;6.30;;;2.60;;
3627;SDS011;1830;49.000;12.074;2022-09-09T14:47:38;8.43;;;2.33;;
3627;SDS011;1830;49.000;12.074;2022-09-09T14:50:05;3.30;;;1.83;;
3627;SDS011;1830;49.000;12.074;2022-09-09T14:52:33;5.00;;;1.97;;
3627;SDS011;1830;49.000;12.074;2022-09-09T14:55:00;6.20;;;4.20;;
3627;SDS011;1830;49.000;12.074;2022-09-09T14:57:27;8.03;;;3.43;;
3627;SDS011;1830;49.000;12.074;2022-09-09T14:59:53;3.90;;;1.93;;
3627;SDS011;1830;49.000;12.074;2022-09-09T15:02:20;5.47;;;2.10;;
3627;SDS011;1830;49.000;12.074;2022-09-09T15:04:48;6.03;;;2.17;;
3627;SDS011;1830;49.000;12.074;2022-09-09T15:07:16;4.37;;;2.13;;
3627;SDS011;1830;49.000;12.074;2022-09-09T15:09:44;8.03;;;2.47;;
3627;SDS011;1830;49.000;12.074;2022-09-09T15:12:12;3.57;;;1.50;;
3627;SDS011;1830;49.000;12.074;2022-09-09T15:14:40;3.77;;;1.80;;